Time;durP1;ratioP1;P1;durP2;ratioP2;P2;SDS_P1;SDS_P2;PMS_P1;PMS_P2;Temp;Humidity;BMP_temperature;BMP_pressure;BME280_temperature;BME280_humidity;BME280_pressure;Samples;Min_cycle;Max_cycle;Signal;HPM_P1;HPM_P2
2023/07/15 00:02:24;;;;;;;4.00;2.78;;;;;;;24.27;98.13;99260.06;4995350;28;20228;-62
2023/07/15 00:04:51;;;;;;;4.63;2.85;;;;;;;24.25;98.43;99256.81;4993889;28;20215;-63
2023/07/15 00:07:18;;;;;;;4.07;2.90;;;;;;;24.20;98.42;99260.00;4993721;28;20210;-63
2023/07/15 00:09:46;;;;;;;4.50;3.00;;;;;;;24.16;98.53;99258.81;4994972;28;20220;-63
2023/07/15 00:12:13;;;;;;;5.28;2.97;;;;;;;24.15;99.11;99258.00;4994353;28;20698;-63
2023/07/15 00:14:40;;;;;;;6.88;3.28;;;;;;;24.18;99.79;99260.22;5001776;28;20213;-63
2023/07/15 00:17:08;;;;;;;5.15;3.05;;;;;;;24.11;99.37;99256.75;4991952;28;20205;-63
2023/07/15 00:19:35;;;;;;;4.47;2.72;;;;;;;24.11;99.58;99267.22;5001004;28;20217;-63
2023/07/15 00:22:02;;;;;;;5.40;3.03;;;;;;;24.10;99.42;99265.59;4992662;28;20243;-62
2023/07/15 00:24:29;;;;;;;8.48;3.38;;;;;;;24.07;99.81;99266.00;5003121;28;20216;-63
2023/07/15 00:26:58;;;;;;;4.72;3.08;;;;;;;24.04;100.00;99266.38;4992853;28;20206;-63
2023/07/15 00:29:25;;;;;;;4.97;3.03;;;;;;;24.02;100.00;99263.16;5000526;28;20652;-63
2023/07/15 00:31:52;;;;;;;4.55;3.10;;;;;;;23.98;100.00;99272.38;4991241;28;20208;-62
2023/07/15 00:34:20;;;;;;;7.25;3.15;;;;;;;23.95;100.00;99264.94;5003408;28;20216;-62
2023/07/15 00:36:47;;;;;;;3.58;2.53;;;;;;;23.91;100.00;99274.13;5002694;28;20201;-63
2023/07/15 00:39:14;;;;;;;5.93;3.53;;;;;;;23.89;100.00;99270.94;5000024;28;20208;-62
2023/07/15 00:41:41;;;;;;;5.32;3.05;;;;;;;23.84;100.00;99268.09;4999950;28;20244;-63
2023/07/15 00:44:14;;;;;;;4.10;3.00;;;;;;;23.84;100.00;99273.31;4998863;28;20205;-63
2023/07/15 00:47:12;;;;;;;3.53;2.70;;;;;;;23.82;100.00;99263.03;4997312;28;20201;-63
2023/07/15 00:49:40;;;;;;;4.72;2.90;;;;;;;23.80;100.00;99259.03;5001410;28;20232;-62
2023/07/15 00:52:10;;;;;;;3.75;2.58;;;;;;;23.75;100.00;99271.84;4992923;28;20563;-62
2023/07/15 00:54:42;;;;;;;5.40;3.05;;;;;;;23.69;100.00;99266.34;4995289;28;20271;-62
2023/07/15 00:57:12;;;;;;;4.28;2.53;;;;;;;23.67;100.00;99260.50;4999291;28;20201;-62
2023/07/15 00:59:40;;;;;;;4.30;3.03;;;;;;;23.62;100.00;99264.69;4999121;28;20909;-63
2023/07/15 01:02:09;;;;;;;3.95;3.13;;;;;;;23.60;100.00;99259.69;4989874;28;20237;-63
2023/07/15 01:04:36;;;;;;;4.72;3.15;;;;;;;23.63;100.00;99264.50;5003137;28;20679;-62
2023/07/15 01:07:04;;;;;;;4.63;3.13;;;;;;;23.56;100.00;99263.69;5000939;28;20694;-62
2023/07/15 01:09:32;;;;;;;5.40;3.47;;;;;;;23.54;100.00;99265.66;5000209;28;20706;-62
2023/07/15 01:11:59;;;;;;;3.97;2.72;;;;;;;23.50;100.00;99270.47;5002289;28;20295;-62
2023/07/15 01:14:27;;;;;;;4.68;2.78;;;;;;;23.47;100.00;99272.63;4997507;28;20276;-62
2023/07/15 01:16:54;;;;;;;4.65;3.03;;;;;;;23.43;100.00;99272.19;4998328;28;20212;-62
2023/07/15 01:19:23;;;;;;;5.10;3.03;;;;;;;23.45;100.00;99266.81;5001034;28;20201;-62
2023/07/15 01:21:51;;;;;;;5.07;3.08;;;;;;;23.41;100.00;99268.16;4993430;28;20245;-62
2023/07/15 01:24:19;;;;;;;4.75;2.90;;;;;;;23.36;100.00;99262.69;4993342;28;20300;-62
2023/07/15 01:26:47;;;;;;;4.88;2.90;;;;;;;23.28;100.00;99271.50;4992090;28;20212;-62
2023/07/15 01:29:14;;;;;;;5.47;3.40;;;;;;;23.23;100.00;99269.44;4991963;28;20275;-62
2023/07/15 01:31:41;;;;;;;4.32;3.00;;;;;;;23.20;100.00;99264.59;4993131;28;20286;-62
2023/07/15 01:34:08;;;;;;;4.45;3.00;;;;;;;23.27;100.00;99275.91;5002887;28;20233;-62
2023/07/15 01:36:35;;;;;;;10.00;3.17;;;;;;;23.31;100.00;99270.31;4998636;28;20201;-63
2023/07/15 01:39:03;;;;;;;4.40;3.10;;;;;;;23.28;100.00;99264.47;5005489;28;20215;-62
2023/07/15 01:41:31;;;;;;;7.13;3.22;;;;;;;23.24;100.00;99260.63;4993128;28;20242;-62
2023/07/15 01:43:58;;;;;;;5.10;3.13;;;;;;;23.21;100.00;99266.22;5002747;28;20225;-63
2023/07/15 01:46:25;;;;;;;4.55;3.00;;;;;;;23.21;100.00;99266.22;4997663;28;20216;-63
2023/07/15 01:48:51;;;;;;;4.80;3.10;;;;;;;23.21;100.00;99276.66;4996762;28;20724;-63
2023/07/15 01:51:18;;;;;;;4.47;3.22;;;;;;;23.23;100.00;99279.06;4990815;28;20213;-63
2023/07/15 01:53:45;;;;;;;4.40;3.08;;;;;;;23.23;100.00;99279.88;4998180;28;20197;-63
2023/07/15 01:56:12;;;;;;;5.22;2.78;;;;;;;23.23;100.00;99282.47;4994626;28;20201;-63
2023/07/15 01:58:40;;;;;;;5.53;3.10;;;;;;;23.25;100.00;99288.31;5001493;28;20241;-62
2023/07/15 02:01:07;;;;;;;4.70;3.20;;;;;;;23.25;100.00;99287.53;5002074;28;20619;-62
2023/07/15 02:03:34;;;;;;;8.23;3.10;;;;;;;23.25;100.00;99280.50;4997774;28;20209;-63
2023/07/15 02:06:00;;;;;;;3.75;2.83;;;;;;;23.24;100.00;99281.50;4992723;28;20244;-62
2023/07/15 02:08:27;;;;;;;7.25;3.40;;;;;;;23.19;100.00;99281.25;4997697;28;20216;-63
2023/07/15 02:10:54;;;;;;;5.45;3.25;;;;;;;23.19;100.00;99283.06;4996363;28;20206;-63
2023/07/15 02:13:21;;;;;;;4.68;3.00;;;;;;;23.19;100.00;99294.28;5002094;28;20210;-63
2023/07/15 02:15:49;;;;;;;6.40;3.40;;;;;;;23.20;100.00;99282.84;5003077;28;20694;-63
2023/07/15 02:18:16;;;;;;;9.32;3.42;;;;;;;23.22;100.00;99287.91;4998569;28;20221;-63
2023/07/15 02:20:43;;;;;;;6.00;2.85;;;;;;;23.17;100.00;99285.84;4997956;28;20209;-62
2023/07/15 02:23:11;;;;;;;7.72;3.65;;;;;;;23.14;100.00;99283.59;5000976;28;20209;-62
2023/07/15 02:25:38;;;;;;;5.55;3.45;;;;;;;23.13;100.00;99283.81;5003667;28;20287;-62
2023/07/15 02:28:05;;;;;;;6.72;3.38;;;;;;;23.13;100.00;99296.84;4994151;28;20200;-63
2023/07/15 02:30:32;;;;;;;3.05;2.47;;;;;;;23.12;100.00;99290.81;4999352;28;20206;-63
2023/07/15 02:33:01;;;;;;;9.40;3.38;;;;;;;23.12;100.00;99293.41;5000855;28;20217;-63
2023/07/15 02:35:29;;;;;;;6.43;3.35;;;;;;;23.08;100.00;99291.38;4992683;28;20704;-63
2023/07/15 02:37:56;;;;;;;5.93;3.22;;;;;;;23.07;100.00;99293.19;4994020;28;20220;-63
2023/07/15 02:40:24;;;;;;;4.53;2.95;;;;;;;23.04;100.00;99296.16;5004504;28;20205;-63
2023/07/15 02:42:51;;;;;;;5.88;3.17;;;;;;;23.03;100.00;99300.56;5004806;28;20240;-63
2023/07/15 02:45:19;;;;;;;6.50;3.83;;;;;;;23.03;100.00;99305.75;5002334;28;20705;-63
2023/07/15 02:47:46;;;;;;;6.35;3.40;;;;;;;22.99;100.00;99299.31;5002340;28;20209;-63
2023/07/15 02:50:14;;;;;;;4.60;3.33;;;;;;;22.98;100.00;99302.94;5001433;28;20629;-63
2023/07/15 02:52:42;;;;;;;4.40;3.25;;;;;;;22.92;100.00;99302.81;4999379;28;20209;-63
2023/07/15 02:55:10;;;;;;;7.22;3.90;;;;;;;22.91;100.00;99301.22;4996080;28;20236;-62
2023/07/15 02:57:37;;;;;;;5.25;3.38;;;;;;;22.92;100.00;99302.81;5001919;28;20209;-62
2023/07/15 03:00:11;;;;;;;5.25;3.58;;;;;;;22.93;100.00;99304.44;4991160;28;20202;-63
2023/07/15 03:02:38;;;;;;;3.78;2.70;;;;;;;22.88;100.00;99307.59;4996094;28;20788;-62
2023/07/15 03:05:05;;;;;;;5.13;3.60;;;;;;;22.80;100.00;99311.13;5002082;28;20290;-62
2023/07/15 03:07:34;;;;;;;5.00;3.35;;;;;;;22.77;100.00;99305.47;5001675;28;20200;-62
2023/07/15 03:10:01;;;;;;;7.22;3.67;;;;;;;22.73;100.00;99314.66;5003461;28;20197;-62
2023/07/15 03:12:28;;;;;;;6.93;3.30;;;;;;;22.69;100.00;99314.22;4998714;28;20216;-62
2023/07/15 03:14:55;;;;;;;5.45;3.30;;;;;;;22.69;100.00;99314.22;4990308;28;20693;-63
2023/07/15 03:17:22;;;;;;;4.88;3.13;;;;;;;22.69;100.00;99319.44;5002249;28;20209;-63
2023/07/15 03:19:49;;;;;;;5.80;3.40;;;;;;;22.69;100.00;99314.22;5002099;28;20211;-63
2023/07/15 03:22:15;;;;;;;5.65;3.25;;;;;;;22.70;100.00;99313.22;5003742;28;20236;-62
2023/07/15 03:24:44;;;;;;;3.90;3.20;;;;;;;22.70;100.00;99315.84;5004264;28;20205;-63
2023/07/15 03:27:10;;;;;;;5.60;3.47;;;;;;;22.65;100.00;99315.56;5003310;28;20620;-62
2023/07/15 03:29:37;;;;;;;6.15;3.40;;;;;;;22.61;100.00;99316.94;4990842;28;20233;-62
2023/07/15 03:32:04;;;;;;;5.03;3.15;;;;;;;22.59;100.00;99318.91;4999459;28;20202;-62
2023/07/15 03:34:31;;;;;;;5.72;3.35;;;;;;;22.58;100.00;99319.91;4989224;28;20648;-62
2023/07/15 03:36:58;;;;;;;4.57;3.17;;;;;;;22.60;100.00;99330.94;4999347;28;20582;-62
2023/07/15 03:39:25;;;;;;;4.78;3.63;;;;;;;22.63;100.00;99332.38;4991189;28;20702;-62
2023/07/15 03:41:53;;;;;;;5.03;3.38;;;;;;;22.63;100.00;99330.59;5000207;28;20243;-62
2023/07/15 03:44:20;;;;;;;5.78;3.60;;;;;;;22.62;100.00;99330.78;4988309;28;20682;-62
2023/07/15 03:46:47;;;;;;;8.40;3.15;;;;;;;22.58;100.00;99332.94;4988589;28;20213;-62
2023/07/15 03:49:14;;;;;;;6.57;3.60;;;;;;;22.56;100.00;99334.91;4990707;28;20247;-62
2023/07/15 03:51:41;;;;;;;4.72;3.47;;;;;;;22.63;100.00;99340.19;5000463;28;20717;-62
2023/07/15 03:54:07;;;;;;;9.77;3.80;;;;;;;22.63;100.00;99335.81;5000121;28;20713;-62
2023/07/15 03:56:34;;;;;;;5.28;3.80;;;;;;;22.69;100.00;99345.50;4995260;28;20209;-62
2023/07/15 03:59:02;;;;;;;5.55;3.50;;;;;;;22.78;100.00;99341.78;4992107;28;20209;-62
2023/07/15 04:01:29;;;;;;;5.90;3.60;;;;;;;22.87;100.00;99341.69;5002028;28;20219;-62
2023/07/15 04:03:56;;;;;;;7.38;3.60;;;;;;;22.83;100.00;99336.84;4998465;28;20712;-62
2023/07/15 04:06:23;;;;;;;7.32;3.67;;;;;;;22.79;100.00;99340.78;4989476;28;20209;-62
2023/07/15 04:08:50;;;;;;;6.95;3.95;;;;;;;22.92;100.00;99339.31;4989196;28;20220;-62
2023/07/15 04:11:18;;;;;;;6.68;4.15;;;;;;;22.97;100.00;99339.59;4989628;28;20205;-62
2023/07/15 04:13:45;;;;;;;6.85;3.53;;;;;;;23.04;100.00;99343.09;4991999;28;20201;-62
2023/07/15 04:16:13;;;;;;;6.45;3.83;;;;;;;23.09;100.00;99345.94;4998074;28;20222;-62
2023/07/15 04:18:42;;;;;;;7.32;3.63;;;;;;;23.12;100.00;99340.34;4989965;28;20208;-62
2023/07/15 04:21:09;;;;;;;6.07;3.83;;;;;;;23.12;100.00;99340.34;4999586;28;20339;-62
2023/07/15 04:23:36;;;;;;;6.15;3.65;;;;;;;23.17;100.00;99340.63;4990164;28;20228;-62
2023/07/15 04:26:03;;;;;;;5.38;3.40;;;;;;;23.22;100.00;99346.09;5002667;28;21253;-62
2023/07/15 04:28:30;;;;;;;5.93;3.88;;;;;;;23.26;100.00;99344.72;4993470;28;20332;-62
2023/07/15 04:30:56;;;;;;;5.90;3.63;;;;;;;23.33;100.00;99351.78;5002719;28;20208;-62
2023/07/15 04:33:25;;;;;;;5.90;4.28;;;;;;;23.36;100.00;99352.25;4999196;28;20661;-62
2023/07/15 04:35:52;;;;;;;6.38;3.80;;;;;;;23.38;100.00;99349.44;5001022;28;20212;-62
2023/07/15 04:38:21;;;;;;;5.40;3.40;;;;;;;23.43;100.00;99349.69;5002333;28;20201;-62
2023/07/15 04:40:48;;;;;;;6.20;3.70;;;;;;;23.46;100.00;99347.50;4993546;28;20730;-62
2023/07/15 04:43:14;;;;;;;6.00;3.92;;;;;;;23.48;100.00;99355.16;4999961;28;20255;-62
2023/07/15 04:45:41;;;;;;;4.63;3.63;;;;;;;23.61;100.00;99360.47;5001224;28;20708;-62
2023/07/15 04:48:08;;;;;;;5.68;3.80;;;;;;;23.68;100.00;99360.56;5002505;28;20224;-62
2023/07/15 04:50:40;;;;;;;8.98;4.00;;;;;;;23.72;100.00;99357.38;4995644;28;20206;-62
2023/07/15 04:53:07;;;;;;;8.13;4.45;;;;;;;23.78;100.00;99355.03;4999343;28;20205;-62
2023/07/15 04:55:34;;;;;;;6.70;3.88;;;;;;;23.90;100.00;99354.28;5003140;28;20213;-62
2023/07/15 04:58:00;;;;;;;5.10;3.75;;;;;;;24.09;100.00;99355.44;5005896;28;20232;-62
2023/07/15 05:00:29;;;;;;;6.95;4.10;;;;;;;24.25;100.00;99353.50;5006302;28;20666;-62
2023/07/15 05:02:56;;;;;;;6.13;4.28;;;;;;;24.36;100.00;99347.75;4997181;28;20706;-62
2023/07/15 05:05:22;;;;;;;5.07;3.60;;;;;;;24.51;100.00;99356.28;5003480;28;20220;-62
2023/07/15 05:07:52;;;;;;;5.65;3.47;;;;;;;24.73;100.00;99356.19;4995236;28;20594;-62
2023/07/15 05:10:19;;;;;;;6.22;3.70;;;;;;;24.87;100.00;99355.22;5000900;28;20209;-62
2023/07/15 05:12:46;;;;;;;5.43;3.70;;;;;;;24.99;100.00;99356.25;5001327;28;20212;-62
2023/07/15 05:15:14;;;;;;;5.28;3.53;;;;;;;25.21;100.00;99356.13;5004426;28;20217;-62
2023/07/15 05:17:42;;;;;;;6.93;4.22;;;;;;;25.41;100.00;99351.69;5004365;28;20753;-62
2023/07/15 05:20:10;;;;;;;9.23;4.00;;;;;;;25.59;100.00;99360.78;4994906;28;20231;-62
2023/07/15 05:22:37;;;;;;;5.90;4.32;;;;;;;25.72;100.00;99358.97;5005797;28;20233;-62
2023/07/15 05:25:06;;;;;;;6.25;3.97;;;;;;;25.80;100.00;99365.00;5004832;28;20208;-62
2023/07/15 05:27:32;;;;;;;5.90;4.30;;;;;;;25.89;100.00;99369.88;5004359;28;20193;-62
2023/07/15 05:29:59;;;;;;;7.97;4.20;;;;;;;26.01;100.00;99366.63;5003099;28;20209;-62
2023/07/15 05:32:26;;;;;;;6.40;4.18;;;;;;;26.07;100.00;99376.28;4992382;28;20272;-62
2023/07/15 05:34:53;;;;;;;6.00;3.97;;;;;;;26.10;100.00;99373.25;5001818;28;20724;-63
2023/07/15 05:37:20;;;;;;;6.53;4.18;;;;;;;26.23;100.00;99378.47;4993149;28;20970;-62
2023/07/15 05:39:47;;;;;;;7.40;3.67;;;;;;;26.13;98.35;99375.47;4991870;28;20198;-62
2023/07/15 05:42:15;;;;;;;9.05;3.78;;;;;;;26.13;100.00;99383.34;4995396;28;20236;-63
2023/07/15 05:44:42;;;;;;;6.13;3.80;;;;;;;26.22;100.00;99389.97;5002378;28;20204;-63
2023/07/15 05:47:09;;;;;;;5.90;4.03;;;;;;;26.32;100.00;99389.53;4997461;28;20208;-63
2023/07/15 05:49:36;;;;;;;6.80;4.00;;;;;;;26.50;100.00;99396.75;4998364;28;20232;-63
2023/07/15 05:52:02;;;;;;;5.30;3.75;;;;;;;26.74;100.00;99393.47;4998282;28;20726;-63
2023/07/15 05:54:29;;;;;;;6.05;3.55;;;;;;;26.97;100.00;99392.94;4996398;28;20202;-63
2023/07/15 05:56:56;;;;;;;6.60;4.03;;;;;;;27.10;97.25;99397.31;4997935;28;20212;-63
2023/07/15 05:59:24;;;;;;;6.63;4.30;;;;;;;27.13;95.39;99402.13;4997074;28;20209;-63
2023/07/15 06:01:51;;;;;;;5.38;3.90;;;;;;;27.15;96.35;99405.41;4998338;28;20220;-63
2023/07/15 06:04:20;;;;;;;6.82;4.25;;;;;;;27.25;97.13;99405.72;5000308;28;20210;-63
2023/07/15 06:06:47;;;;;;;6.05;3.75;;;;;;;27.46;96.61;99411.66;4998895;28;20371;-63
2023/07/15 06:09:14;;;;;;;6.35;4.38;;;;;;;27.63;96.57;99412.75;4992706;28;20212;-63
2023/07/15 06:11:40;;;;;;;5.15;4.25;;;;;;;27.82;96.62;99411.00;4993946;28;20221;-63
2023/07/15 06:14:07;;;;;;;6.57;4.45;;;;;;;27.96;93.88;99406.44;5002132;28;20206;-63
2023/07/15 06:16:35;;;;;;;7.97;4.50;;;;;;;28.07;94.00;99411.00;4999073;28;20591;-62
2023/07/15 06:19:02;;;;;;;5.18;4.00;;;;;;;28.12;87.80;99411.13;4997970;28;20209;-62
2023/07/15 06:21:29;;;;;;;12.95;4.28;;;;;;;28.23;91.09;99416.72;5002237;28;20216;-62
2023/07/15 06:23:56;;;;;;;10.63;4.88;;;;;;;28.27;91.79;99408.16;5002966;28;20671;-62
2023/07/15 06:26:23;;;;;;;4.70;3.53;;;;;;;28.43;95.77;99398.91;5003814;28;20216;-62
2023/07/15 06:28:50;;;;;;;5.82;4.03;;;;;;;28.55;90.02;99405.06;5004269;28;20216;-62
2023/07/15 06:31:16;;;;;;;6.13;4.63;;;;;;;28.79;92.73;99405.16;4992745;28;20296;-63
2023/07/15 06:33:46;;;;;;;5.70;4.32;;;;;;;28.94;92.18;99408.19;4994541;28;20209;-63
2023/07/15 06:36:13;;;;;;;5.88;4.07;;;;;;;29.10;90.20;99407.63;4998276;28;20270;-63
2023/07/15 06:38:40;;;;;;;6.60;4.50;;;;;;;29.26;89.20;99418.53;4997463;28;20208;-63
2023/07/15 06:41:07;;;;;;;4.95;3.97;;;;;;;29.35;91.88;99417.19;5002109;28;20201;-63
2023/07/15 06:43:34;;;;;;;10.98;4.90;;;;;;;29.27;88.00;99412.25;4989202;28;20714;-63
2023/07/15 06:46:01;;;;;;;5.25;4.32;;;;;;;29.21;86.34;99416.59;4989773;28;20200;-66
2023/07/15 06:48:28;;;;;;;7.00;4.60;;;;;;;29.13;85.65;99424.00;4992008;28;20943;-67
2023/07/15 06:50:57;;;;;;;5.68;4.47;;;;;;;28.99;85.45;99421.50;4985119;28;20707;-67
2023/07/15 06:53:23;;;;;;;12.27;4.43;;;;;;;28.78;86.78;99420.16;4998160;28;20212;-65
2023/07/15 06:55:51;;;;;;;6.10;4.32;;;;;;;28.56;86.62;99411.91;4989888;28;20660;-66
2023/07/15 06:58:18;;;;;;;6.25;4.30;;;;;;;28.51;86.41;99422.31;4996150;28;20396;-66
2023/07/15 07:00:45;;;;;;;5.32;3.97;;;;;;;28.53;88.98;99417.63;4995220;28;20208;-66
2023/07/15 07:03:12;;;;;;;4.93;4.05;;;;;;;28.48;87.38;99428.00;4994408;28;20268;-65
2023/07/15 07:05:39;;;;;;;6.80;4.15;;;;;;;28.49;88.32;99421.72;4991390;28;20201;-67
2023/07/15 07:08:09;;;;;;;6.30;4.25;;;;;;;28.54;89.75;99424.50;5000504;28;20206;-66
2023/07/15 07:10:36;;;;;;;6.13;4.50;;;;;;;28.55;88.45;99420.84;4990670;28;20217;-66
2023/07/15 07:13:04;;;;;;;11.40;4.25;;;;;;;28.51;86.61;99427.56;4997643;28;20211;-65
2023/07/15 07:15:31;;;;;;;9.02;4.35;;;;;;;28.51;90.71;99424.94;4994598;28;20213;-66
2023/07/15 07:17:58;;;;;;;8.18;4.03;;;;;;;28.55;90.98;99431.34;5000808;28;20624;-65
2023/07/15 07:20:25;;;;;;;6.85;4.30;;;;;;;28.62;89.44;99428.63;4992825;28;20205;-65
2023/07/15 07:22:52;;;;;;;7.40;5.60;;;;;;;28.57;88.31;99424.06;4999997;28;20232;-67
2023/07/15 07:25:20;;;;;;;5.68;4.32;;;;;;;28.56;87.60;99432.97;4991281;28;20251;-67
2023/07/15 07:27:47;;;;;;;7.10;4.40;;;;;;;28.63;90.60;99427.63;4989630;28;20226;-68
2023/07/15 07:30:14;;;;;;;5.50;4.28;;;;;;;28.69;89.08;99423.31;4993647;28;20208;-69
2023/07/15 07:32:41;;;;;;;5.20;4.22;;;;;;;28.77;89.05;99428.25;4999140;28;20236;-67
2023/07/15 07:35:08;;;;;;;9.05;5.00;;;;;;;29.02;90.10;99426.34;4999214;28;20207;-66
2023/07/15 07:37:35;;;;;;;8.00;5.82;;;;;;;29.27;91.67;99423.59;4991925;28;20209;-67
2023/07/15 07:40:02;;;;;;;7.72;5.40;;;;;;;29.51;89.39;99426.28;4992998;28;20228;-65
2023/07/15 07:42:30;;;;;;;9.80;5.82;;;;;;;29.80;86.94;99419.38;5004063;28;20682;-64
2023/07/15 07:44:57;;;;;;;8.77;4.57;;;;;;;30.01;82.46;99418.78;5003356;28;20212;-63
2023/07/15 07:47:25;;;;;;;6.03;4.68;;;;;;;30.22;84.13;99429.81;5000240;28;20209;-63
2023/07/15 07:49:52;;;;;;;5.60;4.13;;;;;;;30.52;88.63;99427.03;4991320;28;20201;-63
2023/07/15 07:52:19;;;;;;;6.70;3.97;;;;;;;30.68;79.40;99422.84;5003116;28;20757;-63
2023/07/15 07:54:46;;;;;;;11.15;4.50;;;;;;;30.82;79.38;99421.56;4999879;28;20593;-65
2023/07/15 07:57:14;;;;;;;5.82;4.50;;;;;;;31.00;77.90;99425.84;4989234;28;20208;-65
2023/07/15 07:59:42;;;;;;;5.68;3.97;;;;;;;31.28;76.55;99422.41;4999158;28;20211;-65
2023/07/15 08:02:09;;;;;;;6.68;4.35;;;;;;;31.48;78.25;99415.91;4996130;28;20216;-66
2023/07/15 08:04:36;;;;;;;6.65;4.78;;;;;;;31.62;79.39;99425.09;4996326;28;20509;-68
2023/07/15 08:07:02;;;;;;;6.65;4.20;;;;;;;31.88;78.21;99425.47;5000777;28;20446;-69
2023/07/15 08:09:29;;;;;;;8.52;4.18;;;;;;;31.99;73.19;99416.69;4998774;28;20754;-69
2023/07/15 08:11:56;;;;;;;6.05;3.97;;;;;;;32.19;72.18;99427.53;5000484;28;20197;-69
2023/07/15 08:14:23;;;;;;;6.97;3.90;;;;;;;32.10;65.21;99429.00;4996723;28;20756;-70
2023/07/15 08:16:51;;;;;;;5.22;3.90;;;;;;;32.10;68.15;99421.06;4994364;28;20846;-68
2023/07/15 08:19:18;;;;;;;5.32;4.03;;;;;;;32.33;65.92;99419.25;4997373;28;20209;-69
2023/07/15 08:21:45;;;;;;;4.40;3.50;;;;;;;32.51;63.63;99418.97;4997138;28;20377;-68
2023/07/15 08:24:12;;;;;;;4.97;3.40;;;;;;;32.52;65.31;99420.56;4995629;28;20237;-68
2023/07/15 08:26:39;;;;;;;6.30;3.58;;;;;;;32.67;66.15;99418.13;4994490;28;20201;-69
2023/07/15 08:29:06;;;;;;;5.28;3.88;;;;;;;32.92;67.10;99414.91;4998236;28;20200;-68
2023/07/15 08:31:33;;;;;;;5.47;3.67;;;;;;;32.73;59.62;99426.13;4998711;28;20239;-69
2023/07/15 08:34:02;;;;;;;4.63;3.95;;;;;;;32.76;64.85;99425.63;5001547;28;20252;-70
2023/07/15 08:36:29;;;;;;;10.43;6.55;;;;;;;32.91;67.59;99417.84;4998577;28;20208;-69
2023/07/15 08:38:56;;;;;;;7.95;5.15;;;;;;;32.97;61.85;99416.84;5001093;28;20204;-69
2023/07/15 08:41:24;;;;;;;8.82;5.95;;;;;;;33.18;60.75;99412.56;5001663;28;20209;-69
2023/07/15 08:43:51;;;;;;;14.98;8.63;;;;;;;33.17;62.96;99418.91;4999107;28;20232;-70
2023/07/15 08:46:27;;;;;;;14.35;8.73;;;;;;;33.38;66.50;99422.53;4998037;28;20212;-68
2023/07/15 08:48:54;;;;;;;8.88;5.10;;;;;;;33.50;59.06;99431.13;5002534;28;20201;-71
2023/07/15 08:51:26;;;;;;;6.43;4.10;;;;;;;33.64;61.33;99420.13;4996638;28;20678;-68
2023/07/15 08:53:54;;;;;;;6.28;3.70;;;;;;;33.83;61.49;99429.25;4999121;28;20204;-68
2023/07/15 08:56:23;;;;;;;21.25;9.73;;;;;;;34.03;60.41;99429.44;5001009;28;20201;-68
2023/07/15 08:58:52;;;;;;;24.33;13.90;;;;;;;34.28;62.78;99425.31;5003287;28;20600;-65
2023/07/15 09:01:19;;;;;;;14.00;9.05;;;;;;;34.42;61.65;99430.94;4998327;28;20209;-66
2023/07/15 09:03:47;;;;;;;4.35;3.85;;;;;;;34.49;57.15;99426.97;5004853;28;20370;-66
2023/07/15 09:06:15;;;;;;;16.98;9.63;;;;;;;34.51;54.41;99433.91;5002772;28;20209;-66
2023/07/15 09:08:43;;;;;;;3.97;3.40;;;;;;;34.51;49.90;99433.91;4992834;28;20312;-67
2023/07/15 09:11:12;;;;;;;4.95;3.08;;;;;;;34.76;56.21;99436.66;4992325;28;20218;-63
2023/07/15 09:13:40;;;;;;;4.72;3.22;;;;;;;34.81;52.38;99438.53;5004158;28;20224;-66
2023/07/15 09:16:06;;;;;;;3.97;3.58;;;;;;;35.02;54.50;99434.06;5002614;28;20681;-64
2023/07/15 09:18:39;;;;;;;5.55;3.58;;;;;;;34.94;48.76;99438.03;5002143;28;20209;-64
2023/07/15 09:21:11;;;;;;;4.88;3.38;;;;;;;34.86;51.46;99436.69;4992658;28;20614;-63
2023/07/15 09:23:44;;;;;;;4.22;3.03;;;;;;;34.91;52.02;99438.56;4994366;28;20225;-63
2023/07/15 09:26:12;;;;;;;5.18;3.13;;;;;;;34.95;56.07;99444.16;4996783;28;20200;-63
2023/07/15 09:28:40;;;;;;;3.90;3.20;;;;;;;34.93;56.03;99437.22;5006224;28;20296;-64
2023/07/15 09:31:08;;;;;;;3.92;2.90;;;;;;;35.11;60.07;99432.50;5005140;28;20589;-65
2023/07/15 09:33:38;;;;;;;3.88;2.95;;;;;;;35.04;52.58;99431.94;4992430;28;20240;-65
2023/07/15 09:36:06;;;;;;;6.05;2.85;;;;;;;34.81;54.02;99434.00;4996237;28;20295;-66
2023/07/15 09:38:33;;;;;;;3.92;3.13;;;;;;;34.81;52.55;99431.34;5005910;28;20205;-66
2023/07/15 09:41:04;;;;;;;3.72;3.03;;;;;;;34.70;54.25;99427.06;5005575;28;20709;-66
2023/07/15 09:43:54;;;;;;;3.63;3.05;;;;;;;34.59;54.08;99426.25;5003710;28;20222;-65
2023/07/15 09:46:22;;;;;;;3.95;3.22;;;;;;;34.60;50.52;99422.53;4986243;28;20213;-67
2023/07/15 09:48:51;;;;;;;3.50;2.85;;;;;;;34.92;56.99;99414.38;4999224;28;20216;-67
2023/07/15 09:51:19;;;;;;;5.18;3.65;;;;;;;35.06;57.39;99413.91;4999703;28;20201;-67
2023/07/15 09:53:50;;;;;;;3.90;2.95;;;;;;;35.18;57.33;99417.09;4998906;28;20274;-67
2023/07/15 09:56:22;;;;;;;4.00;3.13;;;;;;;35.17;48.83;99418.19;5002163;28;20217;-67
2023/07/15 09:58:53;;;;;;;4.13;3.17;;;;;;;35.35;50.11;99417.66;4996924;28;20228;-67
2023/07/15 10:01:28;;;;;;;4.88;3.30;;;;;;;35.44;52.39;99415.25;4996922;28;20217;-66
2023/07/15 10:04:06;;;;;;;3.30;3.00;;;;;;;35.56;55.78;99409.69;4999061;28;20220;-66
2023/07/15 10:06:33;;;;;;;3.45;2.97;;;;;;;35.33;51.30;99413.66;4997589;28;20572;-65
2023/07/15 10:09:01;;;;;;;5.05;3.58;;;;;;;35.38;55.48;99411.78;4999610;28;20216;-65
2023/07/15 10:11:30;;;;;;;5.00;3.47;;;;;;;35.65;51.40;99400.09;5000409;28;20252;-65
2023/07/15 10:13:58;;;;;;;6.28;3.10;;;;;;;35.75;53.13;99405.41;5000023;28;20304;-65
2023/07/15 10:16:25;;;;;;;5.65;3.70;;;;;;;35.77;51.47;99408.59;4998883;28;20205;-64
2023/07/15 10:18:52;;;;;;;4.18;3.40;;;;;;;35.85;52.97;99403.78;4999449;28;20194;-64
2023/07/15 10:21:19;;;;;;;5.75;3.45;;;;;;;35.91;48.64;99405.38;4998425;28;20210;-64
2023/07/15 10:23:46;;;;;;;3.97;3.22;;;;;;;35.91;48.55;99408.03;4997855;28;20229;-64
2023/07/15 10:26:20;;;;;;;3.25;2.92;;;;;;;35.98;52.19;99404.00;5000281;28;20407;-63
2023/07/15 10:28:53;;;;;;;3.47;3.03;;;;;;;36.04;52.98;99405.63;5001967;28;20212;-63
2023/07/15 10:31:25;;;;;;;4.90;3.30;;;;;;;36.15;50.37;99403.72;5002030;28;20205;-64
2023/07/15 10:33:57;;;;;;;4.00;3.13;;;;;;;36.14;46.65;99401.34;4991496;28;20380;-64
2023/07/15 10:36:41;;;;;;;3.78;3.10;;;;;;;36.19;44.37;99404.78;4996754;28;20205;-64
2023/07/15 10:39:13;;;;;;;4.55;3.45;;;;;;;36.14;46.07;99394.16;4993951;28;20216;-64
2023/07/15 10:41:42;;;;;;;5.63;3.30;;;;;;;36.20;48.77;99395.72;5003016;28;20205;-64
2023/07/15 10:44:28;;;;;;;3.33;2.90;;;;;;;36.36;51.57;99393.00;4990679;28;20767;-67
2023/07/15 10:47:04;;;;;;;3.38;3.08;;;;;;;36.43;47.08;99388.19;4991125;28;20213;-63
2023/07/15 10:49:31;;;;;;;3.65;3.10;;;;;;;36.59;51.66;99392.38;5000306;28;20228;-64
2023/07/15 10:51:58;;;;;;;4.30;3.03;;;;;;;36.43;44.86;99388.97;5002836;28;20254;-63
2023/07/15 10:54:26;;;;;;;5.28;3.28;;;;;;;36.14;43.29;99390.69;4999357;28;20194;-63
2023/07/15 10:56:53;;;;;;;3.72;3.03;;;;;;;36.07;44.13;99390.97;5000874;28;20201;-64
2023/07/15 10:59:22;;;;;;;5.47;3.50;;;;;;;35.93;45.79;99388.06;4995204;28;20209;-63
2023/07/15 11:01:50;;;;;;;3.50;3.20;;;;;;;36.11;42.96;99384.06;4993867;28;20204;-63
2023/07/15 11:04:20;;;;;;;5.05;3.17;;;;;;;36.33;43.56;99390.88;4994224;28;20748;-64
2023/07/15 11:06:47;;;;;;;5.60;3.40;;;;;;;36.40;45.58;99389.50;4995859;28;20275;-64
2023/07/15 11:09:18;;;;;;;5.25;3.33;;;;;;;36.70;47.45;99385.91;4992868;28;20205;-63
2023/07/15 11:11:45;;;;;;;4.32;3.30;;;;;;;36.83;47.92;99386.34;4995038;28;20205;-64
2023/07/15 11:14:23;;;;;;;4.90;3.50;;;;;;;36.59;42.67;99384.38;4995543;28;20209;-62
2023/07/15 11:16:56;;;;;;;6.57;4.55;;;;;;;36.79;46.06;99374.66;4997345;28;20209;-62
2023/07/15 11:19:26;;;;;;;6.25;4.88;;;;;;;36.70;44.94;99375.25;4994337;28;20807;-62
2023/07/15 11:21:53;;;;;;;24.80;13.82;;;;;;;36.66;48.01;99376.88;4992971;28;20209;-62
2023/07/15 11:24:22;;;;;;;9.88;5.88;;;;;;;36.58;42.59;99380.13;4998549;28;20229;-62
2023/07/15 11:26:50;;;;;;;5.32;3.75;;;;;;;36.46;42.92;99377.75;4998605;28;20212;-62
2023/07/15 11:29:19;;;;;;;6.93;3.78;;;;;;;36.49;44.19;99371.09;4994725;28;20247;-62
2023/07/15 11:31:47;;;;;;;4.97;4.20;;;;;;;36.45;44.74;99375.34;4995342;28;20220;-63
2023/07/15 11:34:17;;;;;;;12.95;6.43;;;;;;;36.16;43.21;99364.59;4996832;28;20220;-62